Gypsum, Colorado
Current Conditions -  °F | °C
As of 8:15 PM on Monday 20 Oct 2014 (Local Time) from KEGE Reporting Station
Overcast Overcast  
Wind Chill: 54°   Ceiling: 11000
Heat Index: 54°   Visibility: 10mi
Dew Point: 39°   Wind: 6mph
Humidity: 58%   Direction: 80°E
Pressure: 30.17"   Gusts: NA
Location:  39.65°N, 106.95°W
Report Text: KEGE 210215Z AUTO 08005KT 10SM OVC110 12/04 A3017 RMK AO1
Loading
Personal Weather Stations






























Interactive Weather Map
Tropical Storm Tracking
New forecast layout! Learn more

10-Day Weather Forecast

Advertisements
Track Severe Weather on mobile